createdAt,value
2023-05-15T14:37:47.982Z,985.00
2023-05-15T14:38:47.960Z,973.00
2023-05-15T14:39:47.965Z,966.00
2023-05-15T14:40:47.981Z,959.00
2023-05-15T14:41:47.945Z,955.00
2023-05-15T14:42:47.932Z,956.00
2023-05-15T14:43:47.947Z,954.00
2023-05-15T14:44:47.955Z,954.00
2023-05-15T14:45:47.930Z,950.00
2023-05-15T14:46:48.067Z,951.00
2023-05-15T14:47:47.938Z,950.00
2023-05-15T14:48:47.882Z,948.00
2023-05-15T14:49:47.872Z,947.00
2023-05-15T14:50:47.892Z,945.00
2023-05-15T14:51:47.884Z,946.00
2023-05-15T14:52:47.855Z,948.00
2023-05-15T14:53:47.833Z,949.00
2023-05-15T14:55:00.672Z,947.00
2023-05-15T14:55:48.877Z,947.00
2023-05-15T14:56:47.848Z,946.00
2023-05-15T14:57:47.893Z,945.00
2023-05-15T14:58:47.849Z,943.00
2023-05-15T14:59:47.843Z,941.00
2023-05-15T15:00:47.808Z,944.00
2023-05-15T15:01:47.903Z,944.00
2023-05-15T15:02:47.900Z,941.00
2023-05-15T15:03:47.950Z,941.00
2023-05-15T15:04:47.935Z,940.00
2023-05-15T15:05:47.940Z,940.00
2023-05-15T15:06:48.128Z,942.00
2023-05-15T15:07:48.060Z,941.00
2023-05-15T15:08:48.063Z,941.00
2023-05-15T15:09:48.134Z,942.00
2023-05-15T15:10:48.168Z,942.00
2023-05-15T15:11:48.205Z,939.00
2023-05-15T15:12:48.242Z,940.00
2023-05-15T15:13:48.283Z,939.00
2023-05-15T15:14:48.347Z,939.00
2023-05-15T15:15:48.391Z,936.00
2023-05-15T15:16:48.503Z,933.00
2023-05-15T15:17:48.469Z,931.00
2023-05-15T15:18:48.546Z,931.00
2023-05-15T15:19:48.497Z,929.00
2023-05-15T15:20:48.497Z,928.00
2023-05-15T15:21:48.703Z,928.00
2023-05-15T15:22:48.561Z,929.00
2023-05-15T15:23:48.619Z,925.00
2023-05-15T15:24:48.683Z,925.00
2023-05-15T15:25:48.753Z,923.00
2023-05-15T15:26:48.743Z,922.00
2023-05-15T15:27:48.783Z,925.00
2023-05-15T15:28:48.804Z,923.00
2023-05-15T15:29:48.842Z,921.00
2023-05-15T15:30:48.904Z,922.00
2023-05-15T15:31:49.055Z,920.00
2023-05-15T15:32:49.006Z,920.00
2023-05-15T15:33:49.019Z,921.00
2023-05-15T15:34:49.093Z,922.00
2023-05-15T15:35:49.173Z,924.00
2023-05-15T15:36:49.187Z,927.00
2023-05-15T15:37:49.269Z,927.00
2023-05-15T15:38:49.325Z,924.00
2023-05-15T15:39:49.381Z,925.00
2023-05-15T15:40:49.417Z,925.00
2023-05-15T15:41:49.486Z,922.00
2023-05-15T15:42:49.531Z,923.00
2023-05-15T15:43:49.563Z,919.00
2023-05-15T15:44:49.619Z,915.00
2023-05-15T15:45:49.687Z,912.00
2023-05-15T15:46:49.722Z,911.00
2023-05-15T15:47:49.868Z,908.00
2023-05-15T15:48:49.780Z,910.00
2023-05-15T15:49:49.772Z,910.00
2023-05-15T15:50:49.779Z,915.00
2023-05-15T15:51:49.791Z,915.00
2023-05-15T15:52:49.802Z,915.00
2023-05-15T15:53:49.780Z,916.00
2023-05-15T15:54:49.785Z,914.00
2023-05-15T15:55:49.782Z,914.00
2023-05-15T15:56:49.780Z,914.00
2023-05-15T15:57:49.765Z,911.00
2023-05-15T15:58:49.783Z,908.00
2023-05-15T15:59:49.772Z,908.00
2023-05-15T16:00:49.889Z,906.00
2023-05-15T16:01:49.861Z,905.00
2023-05-15T16:02:49.910Z,904.00
2023-05-15T16:03:49.888Z,905.00
2023-05-15T16:04:49.789Z,907.00
2023-05-15T16:05:49.819Z,906.00
2023-05-15T16:06:49.831Z,903.00
2023-05-15T16:07:49.813Z,901.00
2023-05-15T16:08:49.830Z,900.00
2023-05-15T16:10:00.438Z,898.00
2023-05-15T16:10:50.854Z,897.00
2023-05-15T16:11:49.842Z,898.00
2023-05-15T16:12:49.805Z,899.00
2023-05-15T16:13:49.845Z,901.00
2023-05-15T16:14:49.818Z,902.00
2023-05-15T16:15:49.826Z,901.00
2023-05-15T16:16:49.879Z,899.00
2023-05-15T16:17:49.814Z,900.00
2023-05-15T16:18:49.834Z,899.00
2023-05-15T16:19:49.785Z,898.00
2023-05-15T16:20:49.772Z,897.00
2023-05-15T16:21:49.802Z,892.00
2023-05-15T16:22:50.012Z,893.00
2023-05-15T16:23:49.759Z,892.00
2023-05-15T16:24:49.775Z,894.00
2023-05-15T16:25:49.759Z,895.00
2023-05-15T16:26:49.740Z,894.00
2023-05-15T16:27:49.710Z,893.00
2023-05-15T16:28:49.745Z,892.00
2023-05-15T16:29:49.759Z,892.00
2023-05-15T16:30:50.239Z,891.00
2023-05-15T16:31:49.946Z,891.00
2023-05-15T16:32:49.893Z,890.00
2023-05-15T16:33:49.856Z,890.00
2023-05-15T16:34:49.912Z,888.00
2023-05-15T16:35:49.917Z,887.00
2023-05-15T16:36:49.993Z,886.00
2023-05-15T16:37:50.051Z,886.00
2023-05-15T16:38:50.052Z,884.00
2023-05-15T16:39:50.190Z,888.00
2023-05-15T16:40:50.149Z,890.00
2023-05-15T16:41:50.169Z,891.00
2023-05-15T16:42:50.247Z,891.00
2023-05-15T16:43:50.274Z,887.00
2023-05-15T16:44:50.290Z,884.00
2023-05-15T16:45:50.326Z,885.00
2023-05-15T16:46:50.455Z,884.00
2023-05-15T16:47:50.488Z,881.00
2023-05-15T16:48:50.454Z,881.00
2023-05-15T16:49:50.697Z,881.00
2023-05-15T16:50:50.556Z,880.00
2023-05-15T16:51:50.555Z,880.00
2023-05-15T16:52:50.623Z,880.00
2023-05-15T16:53:50.623Z,881.00
2023-05-15T16:54:50.746Z,881.00
2023-05-15T16:55:50.745Z,880.00
2023-05-15T16:56:50.755Z,878.00
2023-05-15T16:57:50.786Z,879.00
2023-05-15T16:58:50.866Z,879.00
2023-05-15T16:59:50.907Z,878.00
2023-05-15T17:00:50.967Z,880.00
2023-05-15T17:01:51.025Z,881.00
2023-05-15T17:02:51.168Z,880.00
2023-05-15T17:03:51.198Z,877.00
2023-05-15T17:04:51.170Z,875.00
2023-05-15T17:05:51.197Z,875.00
2023-05-15T17:06:51.235Z,872.00
2023-05-15T17:07:51.310Z,871.00
2023-05-15T17:08:51.355Z,873.00
2023-05-15T17:09:51.390Z,872.00
2023-05-15T17:10:52.451Z,872.00
2023-05-15T17:11:51.536Z,870.00
2023-05-15T17:12:51.540Z,868.00
2023-05-15T17:13:51.658Z,867.00
2023-05-15T17:14:51.639Z,866.00
2023-05-15T17:15:51.703Z,864.00
2023-05-15T17:16:51.758Z,866.00
2023-05-15T17:17:51.846Z,869.00
2023-05-15T17:18:51.901Z,871.00
2023-05-15T17:19:51.917Z,872.00
2023-05-15T17:20:51.961Z,872.00
2023-05-15T17:21:52.003Z,871.00
2023-05-15T17:22:52.030Z,870.00
2023-05-15T17:23:52.092Z,870.00
2023-05-15T17:24:52.340Z,870.00
2023-05-15T17:25:52.150Z,870.00
2023-05-15T17:26:52.202Z,871.00
2023-05-15T17:27:52.257Z,868.00
2023-05-15T17:28:52.271Z,871.00
2023-05-15T17:29:52.372Z,871.00
2023-05-15T17:30:52.368Z,870.00
2023-05-15T17:31:52.463Z,870.00
2023-05-15T17:32:52.528Z,868.00
2023-05-15T17:33:52.517Z,866.00
2023-05-15T17:34:52.602Z,867.00
2023-05-15T17:35:52.602Z,864.00
2023-05-15T17:36:52.661Z,865.00
2023-05-15T17:37:52.685Z,865.00
2023-05-15T17:38:52.730Z,864.00
2023-05-15T17:39:52.831Z,864.00
2023-05-15T17:40:52.826Z,865.00
2023-05-15T17:41:52.907Z,866.00
2023-05-15T17:42:52.949Z,866.00
2023-05-15T17:43:52.991Z,868.00
2023-05-15T17:44:53.085Z,869.00
2023-05-15T17:45:53.115Z,869.00
2023-05-15T17:46:53.146Z,871.00
2023-05-15T17:47:53.230Z,869.00
2023-05-15T17:48:53.238Z,867.00
2023-05-15T17:49:53.316Z,864.00
2023-05-15T17:50:53.349Z,865.00
2023-05-15T17:51:53.418Z,867.00
2023-05-15T17:52:53.447Z,866.00
2023-05-15T17:53:53.520Z,866.00
2023-05-15T17:54:53.581Z,867.00
2023-05-15T17:55:53.638Z,863.00
2023-05-15T17:56:53.712Z,861.00
2023-05-15T17:57:53.747Z,860.00
2023-05-15T17:58:53.787Z,860.00
2023-05-15T17:59:53.902Z,856.00
2023-05-15T18:00:53.955Z,855.00
2023-05-15T18:01:54.023Z,852.00
2023-05-15T18:02:54.112Z,848.00
2023-05-15T18:03:54.148Z,848.00
2023-05-15T18:04:54.179Z,847.00
2023-05-15T18:05:54.248Z,846.00
2023-05-15T18:06:54.272Z,847.00
2023-05-15T18:07:54.377Z,847.00
2023-05-15T18:08:54.418Z,847.00
2023-05-15T18:09:54.484Z,848.00
2023-05-15T18:10:54.554Z,849.00
2023-05-15T18:11:54.591Z,848.00
2023-05-15T18:12:54.639Z,851.00
2023-05-15T18:13:54.684Z,849.00
2023-05-15T18:14:54.771Z,847.00
2023-05-15T18:15:54.848Z,845.00
2023-05-15T18:16:54.927Z,846.00
2023-05-15T18:17:55.041Z,846.00
2023-05-15T18:18:55.033Z,847.00
2023-05-15T18:19:55.045Z,845.00
2023-05-15T18:20:55.111Z,844.00
2023-05-15T18:21:55.165Z,844.00
2023-05-15T18:22:55.224Z,843.00
2023-05-15T18:23:55.287Z,842.00
2023-05-15T18:24:55.347Z,842.00
2023-05-15T18:25:55.338Z,843.00
2023-05-15T18:26:55.406Z,841.00
2023-05-15T18:27:55.434Z,842.00
2023-05-15T18:28:55.461Z,840.00
2023-05-15T18:29:55.492Z,837.00
2023-05-15T18:30:55.482Z,834.00
2023-05-15T18:31:55.678Z,834.00
2023-05-15T18:32:55.554Z,829.00
2023-05-15T18:33:55.569Z,831.00
2023-05-15T18:34:55.561Z,828.00
2023-05-15T18:35:55.558Z,827.00
2023-05-15T18:36:55.542Z,827.00
2023-05-15T18:37:55.550Z,826.00
2023-05-15T18:38:55.565Z,825.00
2023-05-15T18:39:55.604Z,824.00
2023-05-15T18:40:55.592Z,825.00
2023-05-15T18:41:55.597Z,826.00
2023-05-15T18:42:55.603Z,828.00
2023-05-15T18:43:55.641Z,828.00
2023-05-15T18:44:55.626Z,829.00
2023-05-15T18:45:55.638Z,829.00
2023-05-15T18:46:55.680Z,829.00
2023-05-15T18:47:55.682Z,825.00
2023-05-15T18:48:55.628Z,824.00
2023-05-15T18:49:55.616Z,823.00
2023-05-15T18:50:55.629Z,821.00
2023-05-15T18:51:55.633Z,819.00
2023-05-15T18:52:55.608Z,819.00
2023-05-15T18:53:55.614Z,815.00
2023-05-15T18:54:55.631Z,814.00
2023-05-15T18:55:55.637Z,816.00
2023-05-15T18:56:55.649Z,813.00
2023-05-15T18:57:55.609Z,812.00
2023-05-15T18:58:55.611Z,812.00
2023-05-15T18:59:55.640Z,812.00
2023-05-15T19:00:55.655Z,813.00
2023-05-15T19:01:55.620Z,812.00
2023-05-15T19:02:55.713Z,814.00
2023-05-15T19:03:55.576Z,815.00
2023-05-15T19:04:55.622Z,816.00
2023-05-15T19:05:55.574Z,815.00
2023-05-15T19:06:55.645Z,816.00
2023-05-15T19:07:55.595Z,817.00
2023-05-15T19:08:55.615Z,818.00
2023-05-15T19:09:55.634Z,816.00
2023-05-15T19:10:55.652Z,815.00
2023-05-15T19:11:55.647Z,814.00
2023-05-15T19:12:55.656Z,815.00
2023-05-15T19:13:55.657Z,813.00
2023-05-15T19:14:55.651Z,813.00
2023-05-15T19:15:55.710Z,812.00
2023-05-15T19:16:55.715Z,813.00
2023-05-15T19:17:55.773Z,811.00
2023-05-15T19:18:55.778Z,812.00
2023-05-15T19:19:55.701Z,810.00
2023-05-15T19:20:55.730Z,809.00
2023-05-15T19:21:55.738Z,811.00
2023-05-15T19:22:55.764Z,810.00
2023-05-15T19:23:55.772Z,812.00
2023-05-15T19:24:55.757Z,812.00
2023-05-15T19:25:55.809Z,813.00
2023-05-15T19:26:55.781Z,811.00
2023-05-15T19:27:55.798Z,810.00
2023-05-15T19:28:55.812Z,809.00
2023-05-15T19:29:55.834Z,808.00
2023-05-15T19:30:55.849Z,809.00
2023-05-15T19:31:55.882Z,808.00
2023-05-15T19:32:55.899Z,806.00
2023-05-15T19:33:55.868Z,803.00
2023-05-15T19:34:55.900Z,799.00
2023-05-15T19:35:55.897Z,796.00
2023-05-15T19:36:55.912Z,795.00
2023-05-15T19:37:55.927Z,796.00
2023-05-15T19:38:55.964Z,795.00
2023-05-15T19:39:56.004Z,796.00
2023-05-15T19:40:55.948Z,796.00
2023-05-15T19:41:56.025Z,795.00
2023-05-15T19:42:55.988Z,796.00
2023-05-15T19:43:56.016Z,795.00
2023-05-15T19:44:56.017Z,795.00
2023-05-15T19:45:56.079Z,797.00
2023-05-15T19:46:56.045Z,797.00
2023-05-15T19:47:56.050Z,797.00
2023-05-15T19:48:56.029Z,795.00
2023-05-15T19:49:56.064Z,792.00
2023-05-15T19:50:56.077Z,791.00
2023-05-15T19:51:56.081Z,790.00
2023-05-15T19:52:56.055Z,790.00
2023-05-15T19:53:56.099Z,793.00
2023-05-15T19:54:56.072Z,793.00
2023-05-15T19:55:56.110Z,793.00
2023-05-15T19:56:56.119Z,792.00
2023-05-15T19:57:56.126Z,789.00
2023-05-15T19:58:56.140Z,789.00
2023-05-15T19:59:56.166Z,789.00
2023-05-15T20:00:56.125Z,790.00
2023-05-15T20:01:56.234Z,787.00
2023-05-15T20:02:56.212Z,784.00
2023-05-15T20:03:56.347Z,785.00
2023-05-15T20:04:56.183Z,781.00
2023-05-15T20:05:56.203Z,780.00
2023-05-15T20:06:56.209Z,779.00
2023-05-15T20:07:56.233Z,780.00
2023-05-15T20:08:56.224Z,778.00
2023-05-15T20:09:56.257Z,778.00
2023-05-15T20:10:56.284Z,775.00
2023-05-15T20:11:56.282Z,776.00
2023-05-15T20:12:56.289Z,776.00
2023-05-15T20:13:56.291Z,778.00
2023-05-15T20:14:56.327Z,780.00
2023-05-15T20:15:56.352Z,779.00
2023-05-15T20:16:56.335Z,779.00
2023-05-15T20:17:56.370Z,778.00
2023-05-15T20:18:56.399Z,777.00
2023-05-15T20:19:56.392Z,776.00
2023-05-15T20:20:56.428Z,776.00
2023-05-15T20:21:56.427Z,776.00
2023-05-15T20:22:56.438Z,775.00
2023-05-15T20:23:56.478Z,773.00
2023-05-15T20:24:56.456Z,770.00
2023-05-15T20:25:56.516Z,769.00
2023-05-15T20:26:56.517Z,770.00
2023-05-15T20:27:56.550Z,772.00
2023-05-15T20:28:56.546Z,770.00
2023-05-15T20:29:56.584Z,771.00
2023-05-15T20:30:56.636Z,773.00
2023-05-15T20:31:56.639Z,772.00
2023-05-15T20:32:56.760Z,769.00
2023-05-15T20:33:56.632Z,768.00
2023-05-15T20:34:56.667Z,767.00
2023-05-15T20:35:56.697Z,766.00
2023-05-15T20:36:56.687Z,764.00
2023-05-15T20:37:56.704Z,762.00
2023-05-15T20:38:56.717Z,763.00
2023-05-15T20:39:56.732Z,763.00
2023-05-15T20:40:56.792Z,762.00
2023-05-15T20:41:56.783Z,760.00
2023-05-15T20:42:56.823Z,761.00
2023-05-15T20:43:56.799Z,762.00
2023-05-15T20:44:56.874Z,761.00
2023-05-15T20:45:56.909Z,761.00
2023-05-15T20:46:56.952Z,760.00
2023-05-15T20:47:56.936Z,759.00
2023-05-15T20:48:56.950Z,760.00
2023-05-15T20:49:56.991Z,758.00
2023-05-15T20:50:56.996Z,758.00
2023-05-15T20:51:56.983Z,758.00
2023-05-15T20:52:57.013Z,760.00
2023-05-15T20:53:57.021Z,758.00
2023-05-15T20:54:57.052Z,759.00
2023-05-15T20:55:57.060Z,758.00
2023-05-15T20:56:57.081Z,758.00
2023-05-15T20:57:57.123Z,756.00
2023-05-15T20:58:59.612Z,755.00
2023-05-15T20:59:57.151Z,755.00
2023-05-15T21:00:57.131Z,756.00
2023-05-15T21:01:57.113Z,757.00
2023-05-15T21:02:57.149Z,759.00
2023-05-15T21:03:57.191Z,759.00
2023-05-15T21:04:57.113Z,758.00
2023-05-15T21:05:57.706Z,757.00
2023-05-15T21:06:57.080Z,757.00
2023-05-15T21:07:57.075Z,755.00
2023-05-15T21:08:57.050Z,756.00
2023-05-15T21:09:57.064Z,756.00
2023-05-15T21:10:57.079Z,755.00
2023-05-15T21:11:57.058Z,754.00
2023-05-15T21:12:59.105Z,752.00
2023-05-15T21:13:57.040Z,748.00
2023-05-15T21:14:57.041Z,746.00
2023-05-15T21:15:57.118Z,746.00
2023-05-15T21:16:57.242Z,747.00
2023-05-15T21:17:57.216Z,747.00
2023-05-15T21:18:57.223Z,746.00
2023-05-15T21:19:57.218Z,746.00
2023-05-15T21:20:57.251Z,745.00
2023-05-15T21:21:57.285Z,745.00
2023-05-15T21:22:57.316Z,745.00
2023-05-15T21:23:57.367Z,742.00
2023-05-15T21:24:57.384Z,741.00
2023-05-15T21:25:57.374Z,741.00
2023-05-15T21:26:57.422Z,741.00
2023-05-15T21:27:57.466Z,741.00
2023-05-15T21:28:57.480Z,737.00
2023-05-15T21:29:57.541Z,737.00
2023-05-15T21:30:57.557Z,738.00
2023-05-15T21:31:57.558Z,738.00
2023-05-15T21:32:57.680Z,735.00
2023-05-15T21:33:57.630Z,733.00
2023-05-15T21:34:57.674Z,734.00
2023-05-15T21:35:57.665Z,735.00
2023-05-15T21:36:57.695Z,733.00
2023-05-15T21:37:57.749Z,733.00
2023-05-15T21:38:57.755Z,735.00
2023-05-15T21:39:57.777Z,734.00
2023-05-15T21:40:57.805Z,733.00
2023-05-15T21:41:57.843Z,732.00
2023-05-15T21:42:57.912Z,735.00
2023-05-15T21:43:57.922Z,733.00
2023-05-15T21:44:57.972Z,734.00
2023-05-15T21:45:57.985Z,732.00
2023-05-15T21:46:57.986Z,734.00
2023-05-15T21:47:58.048Z,736.00
2023-05-15T21:48:58.057Z,737.00
2023-05-15T21:49:58.130Z,736.00
2023-05-15T21:50:58.093Z,734.00
2023-05-15T21:51:58.121Z,733.00
2023-05-15T21:52:58.182Z,733.00
2023-05-15T21:53:58.184Z,734.00
2023-05-15T21:54:58.230Z,730.00
2023-05-15T21:55:58.260Z,728.00
2023-05-15T21:56:58.309Z,724.00
2023-05-15T21:57:58.345Z,724.00
2023-05-15T21:58:58.368Z,726.00
2023-05-15T21:59:58.424Z,728.00
2023-05-15T22:00:58.409Z,729.00
2023-05-15T22:01:58.599Z,727.00
2023-05-15T22:02:58.558Z,729.00
2023-05-15T22:03:58.581Z,730.00
2023-05-15T22:04:58.586Z,728.00
2023-05-15T22:05:58.571Z,727.00
2023-05-15T22:06:58.617Z,724.00
2023-05-15T22:07:58.673Z,724.00
2023-05-15T22:08:58.702Z,724.00
2023-05-15T22:09:58.739Z,726.00
2023-05-15T22:10:58.756Z,727.00
2023-05-15T22:11:58.796Z,728.00
2023-05-15T22:12:58.836Z,729.00
2023-05-15T22:13:58.906Z,732.00
2023-05-15T22:14:59.891Z,731.00
2023-05-15T22:15:59.012Z,729.00
2023-05-15T22:16:59.000Z,726.00
2023-05-15T22:17:59.076Z,727.00
2023-05-15T22:18:59.106Z,725.00
2023-05-15T22:19:59.103Z,724.00
2023-05-15T22:20:59.156Z,724.00
2023-05-15T22:21:59.197Z,724.00
2023-05-15T22:22:59.219Z,725.00
2023-05-15T22:23:59.251Z,723.00
2023-05-15T22:24:59.284Z,722.00
2023-05-15T22:25:59.312Z,723.00
2023-05-15T22:26:59.355Z,721.00
2023-05-15T22:27:59.410Z,720.00
2023-05-15T22:28:59.399Z,719.00
2023-05-15T22:29:59.448Z,717.00
2023-05-15T22:30:59.494Z,718.00
2023-05-15T22:31:59.836Z,720.00
2023-05-15T22:32:59.582Z,719.00
2023-05-15T22:33:59.574Z,717.00
2023-05-15T22:34:59.657Z,718.00
2023-05-15T22:35:59.668Z,715.00
2023-05-15T22:36:59.716Z,716.00
2023-05-15T22:37:59.744Z,715.00
2023-05-15T22:38:59.784Z,718.00
2023-05-15T22:39:59.830Z,717.00
2023-05-15T22:40:59.842Z,717.00
2023-05-15T22:41:59.914Z,717.00
2023-05-15T22:42:59.943Z,716.00
2023-05-15T22:43:59.993Z,716.00
2023-05-15T22:45:00.057Z,714.00
2023-05-15T22:46:00.141Z,715.00
2023-05-15T22:47:00.151Z,717.00
2023-05-15T22:48:00.280Z,715.00
2023-05-15T22:49:00.267Z,714.00
2023-05-15T22:50:00.259Z,712.00
2023-05-15T22:51:00.262Z,710.00
2023-05-15T22:52:00.300Z,708.00
2023-05-15T22:53:00.351Z,709.00
2023-05-15T22:54:00.414Z,710.00
2023-05-15T22:55:00.457Z,710.00
2023-05-15T22:56:00.522Z,709.00
2023-05-15T22:57:00.561Z,708.00
2023-05-15T22:58:00.594Z,708.00
2023-05-15T22:59:00.618Z,706.00
2023-05-15T23:00:00.697Z,704.00
2023-05-15T23:01:00.812Z,701.00
2023-05-15T23:02:00.766Z,700.00
2023-05-15T23:03:00.844Z,700.00
2023-05-15T23:04:00.893Z,696.00
2023-05-15T23:05:00.925Z,693.00
2023-05-15T23:06:00.909Z,692.00
2023-05-15T23:07:00.986Z,693.00
2023-05-15T23:08:01.015Z,693.00
2023-05-15T23:09:01.082Z,692.00
2023-05-15T23:10:01.127Z,692.00
2023-05-15T23:11:01.160Z,692.00
2023-05-15T23:12:01.193Z,694.00
2023-05-15T23:13:01.217Z,694.00
2023-05-15T23:14:01.338Z,694.00
2023-05-15T23:15:01.336Z,692.00
2023-05-15T23:16:01.425Z,694.00
2023-05-15T23:17:01.430Z,697.00
2023-05-15T23:18:01.481Z,698.00
2023-05-15T23:19:01.519Z,698.00
2023-05-15T23:20:01.587Z,696.00
2023-05-15T23:21:01.612Z,696.00
2023-05-15T23:22:01.630Z,696.00
2023-05-15T23:23:01.709Z,696.00
2023-05-15T23:24:01.736Z,695.00
2023-05-15T23:25:01.842Z,693.00
2023-05-15T23:26:01.835Z,693.00
2023-05-15T23:27:01.893Z,692.00
2023-05-15T23:28:01.937Z,693.00
2023-05-15T23:29:01.975Z,694.00
2023-05-15T23:30:02.069Z,695.00
2023-05-15T23:31:02.096Z,695.00
2023-05-15T23:32:02.134Z,693.00
2023-05-15T23:33:02.267Z,694.00
2023-05-15T23:34:02.237Z,694.00
2023-05-15T23:35:02.303Z,692.00
2023-05-15T23:36:02.363Z,690.00
2023-05-15T23:37:02.397Z,689.00
2023-05-15T23:38:02.419Z,688.00
2023-05-15T23:39:02.469Z,686.00
2023-05-15T23:40:02.576Z,688.00
2023-05-15T23:41:02.593Z,688.00
2023-05-15T23:42:02.694Z,688.00
2023-05-15T23:43:02.697Z,687.00
2023-05-15T23:44:02.749Z,689.00
2023-05-15T23:45:02.788Z,687.00
2023-05-15T23:46:02.847Z,687.00
2023-05-15T23:47:03.083Z,690.00
2023-05-15T23:48:02.996Z,691.00
2023-05-15T23:49:03.015Z,690.00
2023-05-15T23:50:03.077Z,689.00
2023-05-15T23:51:03.130Z,688.00
2023-05-15T23:52:03.154Z,688.00
2023-05-15T23:53:03.232Z,686.00
2023-05-15T23:54:03.284Z,687.00
2023-05-15T23:55:03.350Z,687.00
2023-05-15T23:56:03.392Z,691.00
2023-05-15T23:57:03.438Z,690.00
2023-05-15T23:58:03.496Z,690.00
2023-05-15T23:59:03.520Z,688.00
